sensor_id;sensor_type;location;lat;lon;timestamp;temperature;humidity
64937;SHT30;51452;47.698;19.050;2023-05-10T00:01:55;13.72;56.67
64937;SHT30;51452;47.698;19.050;2023-05-10T00:04:21;13.73;57.45
64937;SHT30;51452;47.698;19.050;2023-05-10T00:06:46;13.82;57.09
64937;SHT30;51452;47.698;19.050;2023-05-10T00:09:12;13.83;57.07
64937;SHT30;51452;47.698;19.050;2023-05-10T00:11:37;13.75;57.85
64937;SHT30;51452;47.698;19.050;2023-05-10T00:14:02;13.79;57.82
64937;SHT30;51452;47.698;19.050;2023-05-10T00:16:28;13.76;58.13
64937;SHT30;51452;47.698;19.050;2023-05-10T00:18:53;13.79;58.05
64937;SHT30;51452;47.698;19.050;2023-05-10T00:21:19;13.72;58.22
64937;SHT30;51452;47.698;19.050;2023-05-10T00:23:45;13.67;58.26
64937;SHT30;51452;47.698;19.050;2023-05-10T00:26:10;13.66;58.60
64937;SHT30;51452;47.698;19.050;2023-05-10T00:28:35;13.66;58.67
64937;SHT30;51452;47.698;19.050;2023-05-10T00:31:01;13.63;58.68
64937;SHT30;51452;47.698;19.050;2023-05-10T00:33:26;13.65;58.65
64937;SHT30;51452;47.698;19.050;2023-05-10T00:35:52;13.45;59.40
64937;SHT30;51452;47.698;19.050;2023-05-10T00:38:17;13.52;59.62
64937;SHT30;51452;47.698;19.050;2023-05-10T00:40:43;13.45;60.32
64937;SHT30;51452;47.698;19.050;2023-05-10T00:43:09;13.35;60.92
64937;SHT30;51452;47.698;19.050;2023-05-10T00:45:34;13.29;60.96
64937;SHT30;51452;47.698;19.050;2023-05-10T00:48:02;13.31;60.89
64937;SHT30;51452;47.698;19.050;2023-05-10T00:50:27;13.22;60.74
64937;SHT30;51452;47.698;19.050;2023-05-10T00:52:53;13.22;61.25
64937;SHT30;51452;47.698;19.050;2023-05-10T00:55:19;13.24;61.60
64937;SHT30;51452;47.698;19.050;2023-05-10T00:57:44;13.24;61.71
64937;SHT30;51452;47.698;19.050;2023-05-10T01:00:12;13.21;61.96
64937;SHT30;51452;47.698;19.050;2023-05-10T01:02:37;13.15;62.11
64937;SHT30;51452;47.698;19.050;2023-05-10T01:05:03;13.12;62.67
64937;SHT30;51452;47.698;19.050;2023-05-10T01:07:29;13.08;63.15
64937;SHT30;51452;47.698;19.050;2023-05-10T01:09:55;13.12;62.87
64937;SHT30;51452;47.698;19.050;2023-05-10T01:12:20;13.12;63.05
64937;SHT30;51452;47.698;19.050;2023-05-10T01:14:46;13.18;63.21
64937;SHT30;51452;47.698;19.050;2023-05-10T01:17:12;13.24;63.17
64937;SHT30;51452;47.698;19.050;2023-05-10T01:19:38;13.29;62.82
64937;SHT30;51452;47.698;19.050;2023-05-10T01:31:06;13.16;63.91
64937;SHT30;51452;47.698;19.050;2023-05-10T01:33:50;13.18;64.07
64937;SHT30;51452;47.698;19.050;2023-05-10T01:36:32;13.18;64.27
64937;SHT30;51452;47.698;19.050;2023-05-10T01:39:24;13.21;63.80
64937;SHT30;51452;47.698;19.050;2023-05-10T01:42:10;13.25;63.85
64937;SHT30;51452;47.698;19.050;2023-05-10T01:44:43;13.26;64.51
64937;SHT30;51452;47.698;19.050;2023-05-10T01:47:15;13.28;64.16
64937;SHT30;51452;47.698;19.050;2023-05-10T01:49:49;13.25;64.34
64937;SHT30;51452;47.698;19.050;2023-05-10T01:52:17;13.24;64.40
64937;SHT30;51452;47.698;19.050;2023-05-10T01:55:06;13.28;64.18
64937;SHT30;51452;47.698;19.050;2023-05-10T01:57:39;13.28;64.90
64937;SHT30;51452;47.698;19.050;2023-05-10T02:00:06;13.28;64.84
64937;SHT30;51452;47.698;19.050;2023-05-10T02:02:37;13.31;64.95
64937;SHT30;51452;47.698;19.050;2023-05-10T02:05:05;13.28;64.95
64937;SHT30;51452;47.698;19.050;2023-05-10T02:07:33;13.35;65.19
64937;SHT30;51452;47.698;19.050;2023-05-10T02:10:00;13.44;64.55
64937;SHT30;51452;47.698;19.050;2023-05-10T02:12:27;13.42;65.26
64937;SHT30;51452;47.698;19.050;2023-05-10T02:14:54;13.39;65.00
64937;SHT30;51452;47.698;19.050;2023-05-10T02:17:20;13.45;64.57
64937;SHT30;51452;47.698;19.050;2023-05-10T02:19:47;13.44;64.65
64937;SHT30;51452;47.698;19.050;2023-05-10T02:22:13;13.45;66.48
64937;SHT30;51452;47.698;19.050;2023-05-10T02:24:39;13.51;65.04
64937;SHT30;51452;47.698;19.050;2023-05-10T02:27:06;13.55;64.84
64937;SHT30;51452;47.698;19.050;2023-05-10T02:29:32;13.58;64.91
64937;SHT30;51452;47.698;19.050;2023-05-10T02:31:58;13.61;65.30
64937;SHT30;51452;47.698;19.050;2023-05-10T02:34:28;13.56;64.13
64937;SHT30;51452;47.698;19.050;2023-05-10T02:36:55;13.54;66.04
64937;SHT30;51452;47.698;19.050;2023-05-10T02:39:22;13.49;65.93
64937;SHT30;51452;47.698;19.050;2023-05-10T02:41:49;13.52;65.48
64937;SHT30;51452;47.698;19.050;2023-05-10T02:44:17;13.41;65.44
64937;SHT30;51452;47.698;19.050;2023-05-10T02:46:43;13.41;65.41
64937;SHT30;51452;47.698;19.050;2023-05-10T02:49:09;13.49;65.13
64937;SHT30;51452;47.698;19.050;2023-05-10T02:51:37;13.44;66.17
64937;SHT30;51452;47.698;19.050;2023-05-10T02:54:30;13.51;66.02
64937;SHT30;51452;47.698;19.050;2023-05-10T02:56:58;13.51;65.16
64937;SHT30;51452;47.698;19.050;2023-05-10T02:59:28;13.46;66.03
64937;SHT30;51452;47.698;19.050;2023-05-10T03:01:53;13.42;66.70
64937;SHT30;51452;47.698;19.050;2023-05-10T03:04:18;13.35;66.61
64937;SHT30;51452;47.698;19.050;2023-05-10T03:06:44;13.34;64.96
64937;SHT30;51452;47.698;19.050;2023-05-10T03:09:10;13.26;64.81
64937;SHT30;51452;47.698;19.050;2023-05-10T03:12:03;13.19;65.80
64937;SHT30;51452;47.698;19.050;2023-05-10T03:14:49;13.14;65.33
64937;SHT30;51452;47.698;19.050;2023-05-10T03:19:57;13.16;65.97
64937;SHT30;51452;47.698;19.050;2023-05-10T03:22:26;13.12;65.82
64937;SHT30;51452;47.698;19.050;2023-05-10T03:24:55;13.11;65.68
64937;SHT30;51452;47.698;19.050;2023-05-10T03:27:23;13.07;65.07
64937;SHT30;51452;47.698;19.050;2023-05-10T03:29:51;13.03;64.47
64937;SHT30;51452;47.698;19.050;2023-05-10T03:32:16;13.11;63.46
64937;SHT30;51452;47.698;19.050;2023-05-10T03:34:42;13.19;63.53
64937;SHT30;51452;47.698;19.050;2023-05-10T03:37:08;13.18;63.05
64937;SHT30;51452;47.698;19.050;2023-05-10T03:39:34;13.21;64.19
64937;SHT30;51452;47.698;19.050;2023-05-10T03:41:59;13.15;63.20
64937;SHT30;51452;47.698;19.050;2023-05-10T03:44:25;13.21;63.78
64937;SHT30;51452;47.698;19.050;2023-05-10T03:46:50;13.25;63.31
64937;SHT30;51452;47.698;19.050;2023-05-10T03:49:15;13.12;64.27
64937;SHT30;51452;47.698;19.050;2023-05-10T03:51:41;13.07;63.71
64937;SHT30;51452;47.698;19.050;2023-05-10T03:54:06;13.01;64.99
64937;SHT30;51452;47.698;19.050;2023-05-10T03:56:31;12.91;65.35
64937;SHT30;51452;47.698;19.050;2023-05-10T03:58:57;12.84;65.23
64937;SHT30;51452;47.698;19.050;2023-05-10T04:01:23;12.85;66.66
64937;SHT30;51452;47.698;19.050;2023-05-10T04:03:48;12.80;66.18
64937;SHT30;51452;47.698;19.050;2023-05-10T04:06:14;12.77;65.81
64937;SHT30;51452;47.698;19.050;2023-05-10T04:08:39;12.63;66.21
64937;SHT30;51452;47.698;19.050;2023-05-10T04:11:14;12.59;66.29
64937;SHT30;51452;47.698;19.050;2023-05-10T04:13:39;12.47;66.54
64937;SHT30;51452;47.698;19.050;2023-05-10T04:16:05;12.43;66.66
64937;SHT30;51452;47.698;19.050;2023-05-10T04:18:30;12.39;67.14
64937;SHT30;51452;47.698;19.050;2023-05-10T04:20:56;12.36;67.37
64937;SHT30;51452;47.698;19.050;2023-05-10T04:23:22;12.39;67.70
64937;SHT30;51452;47.698;19.050;2023-05-10T04:25:47;12.26;68.28
64937;SHT30;51452;47.698;19.050;2023-05-10T04:28:12;12.28;68.27
64937;SHT30;51452;47.698;19.050;2023-05-10T04:30:38;12.39;68.20
64937;SHT30;51452;47.698;19.050;2023-05-10T04:33:03;12.46;67.90
64937;SHT30;51452;47.698;19.050;2023-05-10T04:35:29;12.49;68.10
64937;SHT30;51452;47.698;19.050;2023-05-10T04:37:55;12.57;67.30
64937;SHT30;51452;47.698;19.050;2023-05-10T04:40:20;12.60;67.89
64937;SHT30;51452;47.698;19.050;2023-05-10T04:42:46;12.70;68.20
64937;SHT30;51452;47.698;19.050;2023-05-10T04:45:11;12.84;66.64
64937;SHT30;51452;47.698;19.050;2023-05-10T04:47:37;12.94;66.18
64937;SHT30;51452;47.698;19.050;2023-05-10T04:50:03;13.04;65.41
64937;SHT30;51452;47.698;19.050;2023-05-10T04:52:29;13.22;64.81
64937;SHT30;51452;47.698;19.050;2023-05-10T04:54:54;13.28;64.89
64937;SHT30;51452;47.698;19.050;2023-05-10T04:57:20;13.31;65.09
64937;SHT30;51452;47.698;19.050;2023-05-10T04:59:45;13.39;64.40
64937;SHT30;51452;47.698;19.050;2023-05-10T05:02:10;13.49;64.66
64937;SHT30;51452;47.698;19.050;2023-05-10T05:04:36;13.51;65.28
64937;SHT30;51452;47.698;19.050;2023-05-10T05:07:01;13.48;64.38
64937;SHT30;51452;47.698;19.050;2023-05-10T05:09:27;13.52;64.78
64937;SHT30;51452;47.698;19.050;2023-05-10T05:11:52;13.52;64.30
64937;SHT30;51452;47.698;19.050;2023-05-10T05:14:18;13.56;63.63
64937;SHT30;51452;47.698;19.050;2023-05-10T05:16:43;13.59;63.86
64937;SHT30;51452;47.698;19.050;2023-05-10T05:19:08;13.77;63.24
64937;SHT30;51452;47.698;19.050;2023-05-10T05:21:34;13.79;62.81
64937;SHT30;51452;47.698;19.050;2023-05-10T05:24:00;13.94;62.37
64937;SHT30;51452;47.698;19.050;2023-05-10T05:26:26;14.00;62.73
64937;SHT30;51452;47.698;19.050;2023-05-10T05:28:51;14.06;62.04
64937;SHT30;51452;47.698;19.050;2023-05-10T05:31:19;14.14;61.52
64937;SHT30;51452;47.698;19.050;2023-05-10T05:33:44;14.10;62.50
64937;SHT30;51452;47.698;19.050;2023-05-10T05:36:10;14.00;62.53
64937;SHT30;51452;47.698;19.050;2023-05-10T05:38:36;14.00;63.87
64937;SHT30;51452;47.698;19.050;2023-05-10T05:41:01;14.10;62.55
64937;SHT30;51452;47.698;19.050;2023-05-10T05:43:27;14.07;61.79
64937;SHT30;51452;47.698;19.050;2023-05-10T05:45:53;14.00;61.85
64937;SHT30;51452;47.698;19.050;2023-05-10T05:48:19;14.07;62.07
64937;SHT30;51452;47.698;19.050;2023-05-10T05:50:44;14.07;62.78
64937;SHT30;51452;47.698;19.050;2023-05-10T05:53:10;14.21;62.24
64937;SHT30;51452;47.698;19.050;2023-05-10T05:55:36;14.23;61.97
64937;SHT30;51452;47.698;19.050;2023-05-10T05:58:01;14.44;61.48
64937;SHT30;51452;47.698;19.050;2023-05-10T06:00:27;14.49;61.26
64937;SHT30;51452;47.698;19.050;2023-05-10T06:02:52;14.57;62.09
64937;SHT30;51452;47.698;19.050;2023-05-10T06:05:17;14.67;60.64
64937;SHT30;51452;47.698;19.050;2023-05-10T06:07:43;14.69;59.96
64937;SHT30;51452;47.698;19.050;2023-05-10T06:10:09;14.76;59.45
64937;SHT30;51452;47.698;19.050;2023-05-10T06:12:34;14.79;59.64
64937;SHT30;51452;47.698;19.050;2023-05-10T06:15:00;14.82;59.68
64937;SHT30;51452;47.698;19.050;2023-05-10T06:17:26;14.92;60.13
64937;SHT30;51452;47.698;19.050;2023-05-10T06:19:51;14.93;60.62
64937;SHT30;51452;47.698;19.050;2023-05-10T06:22:17;14.95;59.68
64937;SHT30;51452;47.698;19.050;2023-05-10T06:24:42;14.92;60.50
64937;SHT30;51452;47.698;19.050;2023-05-10T06:27:08;14.93;60.23
64937;SHT30;51452;47.698;19.050;2023-05-10T06:29:34;14.89;60.90
64937;SHT30;51452;47.698;19.050;2023-05-10T06:31:59;15.05;61.16
64937;SHT30;51452;47.698;19.050;2023-05-10T06:34:25;14.95;60.25
64937;SHT30;51452;47.698;19.050;2023-05-10T06:36:51;14.95;59.92
64937;SHT30;51452;47.698;19.050;2023-05-10T06:39:16;14.92;60.38
64937;SHT30;51452;47.698;19.050;2023-05-10T06:41:42;14.88;61.36
64937;SHT30;51452;47.698;19.050;2023-05-10T06:44:07;14.96;60.68
64937;SHT30;51452;47.698;19.050;2023-05-10T06:46:33;15.16;60.30
64937;SHT30;51452;47.698;19.050;2023-05-10T06:48:59;15.19;60.91
64937;SHT30;51452;47.698;19.050;2023-05-10T06:51:24;15.02;59.71
64937;SHT30;51452;47.698;19.050;2023-05-10T06:53:49;14.93;59.81
64937;SHT30;51452;47.698;19.050;2023-05-10T06:56:15;14.91;60.53
64937;SHT30;51452;47.698;19.050;2023-05-10T06:58:40;15.02;60.63
64937;SHT30;51452;47.698;19.050;2023-05-10T07:01:06;15.23;59.96
64937;SHT30;51452;47.698;19.050;2023-05-10T07:03:31;15.49;61.19
64937;SHT30;51452;47.698;19.050;2023-05-10T07:06:02;15.46;59.00
64937;SHT30;51452;47.698;19.050;2023-05-10T07:08:29;15.46;58.27
64937;SHT30;51452;47.698;19.050;2023-05-10T07:11:02;15.37;58.76
64937;SHT30;51452;47.698;19.050;2023-05-10T07:13:29;15.39;58.72
64937;SHT30;51452;47.698;19.050;2023-05-10T07:15:55;15.42;58.98
64937;SHT30;51452;47.698;19.050;2023-05-10T07:18:20;15.49;58.70
64937;SHT30;51452;47.698;19.050;2023-05-10T07:20:45;15.49;58.51
64937;SHT30;51452;47.698;19.050;2023-05-10T07:23:11;15.53;58.20
64937;SHT30;51452;47.698;19.050;2023-05-10T07:25:36;15.54;59.05
64937;SHT30;51452;47.698;19.050;2023-05-10T07:28:02;15.58;59.07
64937;SHT30;51452;47.698;19.050;2023-05-10T07:30:28;15.64;58.29
64937;SHT30;51452;47.698;19.050;2023-05-10T07:32:53;15.73;58.70
64937;SHT30;51452;47.698;19.050;2023-05-10T07:35:18;15.88;59.43
64937;SHT30;51452;47.698;19.050;2023-05-10T07:37:44;15.95;59.19
64937;SHT30;51452;47.698;19.050;2023-05-10T07:40:09;15.97;58.37
64937;SHT30;51452;47.698;19.050;2023-05-10T07:42:35;15.94;58.25
64937;SHT30;51452;47.698;19.050;2023-05-10T07:45:01;15.97;58.90
64937;SHT30;51452;47.698;19.050;2023-05-10T07:47:27;15.95;58.42
64937;SHT30;51452;47.698;19.050;2023-05-10T07:49:52;16.01;57.74
64937;SHT30;51452;47.698;19.050;2023-05-10T07:52:17;15.97;57.93
64937;SHT30;51452;47.698;19.050;2023-05-10T07:54:43;16.01;57.30
64937;SHT30;51452;47.698;19.050;2023-05-10T07:57:08;16.06;57.62
64937;SHT30;51452;47.698;19.050;2023-05-10T07:59:33;16.21;57.70
64937;SHT30;51452;47.698;19.050;2023-05-10T08:01:59;16.41;56.50
64937;SHT30;51452;47.698;19.050;2023-05-10T08:04:24;16.46;55.43
64937;SHT30;51452;47.698;19.050;2023-05-10T08:06:50;16.48;56.25
64937;SHT30;51452;47.698;19.050;2023-05-10T08:09:15;16.39;56.21
64937;SHT30;51452;47.698;19.050;2023-05-10T08:11:41;16.55;56.28
64937;SHT30;51452;47.698;19.050;2023-05-10T08:14:06;16.65;56.28
64937;SHT30;51452;47.698;19.050;2023-05-10T08:16:32;16.63;56.15
64937;SHT30;51452;47.698;19.050;2023-05-10T08:18:57;16.57;56.14
64937;SHT30;51452;47.698;19.050;2023-05-10T08:21:22;16.70;55.13
64937;SHT30;51452;47.698;19.050;2023-05-10T08:23:48;16.86;55.65
64937;SHT30;51452;47.698;19.050;2023-05-10T08:26:14;16.88;56.64
64937;SHT30;51452;47.698;19.050;2023-05-10T08:28:39;16.77;55.34
64937;SHT30;51452;47.698;19.050;2023-05-10T08:31:05;16.99;55.31
64937;SHT30;51452;47.698;19.050;2023-05-10T08:33:30;17.04;55.29
64937;SHT30;51452;47.698;19.050;2023-05-10T08:35:56;16.97;55.19
64937;SHT30;51452;47.698;19.050;2023-05-10T08:38:21;16.84;56.07
64937;SHT30;51452;47.698;19.050;2023-05-10T08:40:48;16.81;55.50
64937;SHT30;51452;47.698;19.050;2023-05-10T08:43:15;16.91;55.45
64937;SHT30;51452;47.698;19.050;2023-05-10T08:45:43;17.03;56.28
64937;SHT30;51452;47.698;19.050;2023-05-10T08:48:10;16.97;54.71
64937;SHT30;51452;47.698;19.050;2023-05-10T08:50:39;16.97;54.90
64937;SHT30;51452;47.698;19.050;2023-05-10T08:53:12;17.00;55.05
64937;SHT30;51452;47.698;19.050;2023-05-10T08:55:39;16.90;55.17
64937;SHT30;51452;47.698;19.050;2023-05-10T08:58:06;16.96;54.81
64937;SHT30;51452;47.698;19.050;2023-05-10T09:00:32;17.06;54.23
64937;SHT30;51452;47.698;19.050;2023-05-10T09:02:58;17.18;55.31
64937;SHT30;51452;47.698;19.050;2023-05-10T09:05:24;17.23;54.66
64937;SHT30;51452;47.698;19.050;2023-05-10T09:07:50;17.14;55.18
64937;SHT30;51452;47.698;19.050;2023-05-10T09:10:15;17.07;55.56
64937;SHT30;51452;47.698;19.050;2023-05-10T09:12:41;17.30;55.47
64937;SHT30;51452;47.698;19.050;2023-05-10T09:15:07;17.39;55.68
64937;SHT30;51452;47.698;19.050;2023-05-10T09:17:34;17.39;55.61
64937;SHT30;51452;47.698;19.050;2023-05-10T09:20:00;17.41;54.85
64937;SHT30;51452;47.698;19.050;2023-05-10T09:22:26;17.49;54.45
64937;SHT30;51452;47.698;19.050;2023-05-10T09:27:34;17.44;54.51
64937;SHT30;51452;47.698;19.050;2023-05-10T09:30:00;17.48;54.72
64937;SHT30;51452;47.698;19.050;2023-05-10T09:32:43;17.54;54.10
64937;SHT30;51452;47.698;19.050;2023-05-10T09:35:16;17.65;53.22
64937;SHT30;51452;47.698;19.050;2023-05-10T09:37:44;17.56;52.73
64937;SHT30;51452;47.698;19.050;2023-05-10T09:40:16;17.51;52.81
64937;SHT30;51452;47.698;19.050;2023-05-10T09:45:31;17.44;52.67
64937;SHT30;51452;47.698;19.050;2023-05-10T09:47:57;17.48;53.10
64937;SHT30;51452;47.698;19.050;2023-05-10T09:50:24;17.71;52.61
64937;SHT30;51452;47.698;19.050;2023-05-10T09:52:58;17.65;52.54
64937;SHT30;51452;47.698;19.050;2023-05-10T09:55:38;17.69;53.21
64937;SHT30;51452;47.698;19.050;2023-05-10T09:58:05;17.74;52.38
64937;SHT30;51452;47.698;19.050;2023-05-10T10:00:36;17.71;51.98
64937;SHT30;51452;47.698;19.050;2023-05-10T10:03:02;17.56;52.38
64937;SHT30;51452;47.698;19.050;2023-05-10T10:05:32;17.72;53.60
64937;SHT30;51452;47.698;19.050;2023-05-10T10:07:59;17.79;52.51
64937;SHT30;51452;47.698;19.050;2023-05-10T10:10:26;17.95;51.73
64937;SHT30;51452;47.698;19.050;2023-05-10T10:12:52;18.13;51.88
64937;SHT30;51452;47.698;19.050;2023-05-10T10:15:18;18.16;53.34
64937;SHT30;51452;47.698;19.050;2023-05-10T10:17:43;18.02;52.11
64937;SHT30;51452;47.698;19.050;2023-05-10T10:20:09;18.05;52.45
64937;SHT30;51452;47.698;19.050;2023-05-10T10:22:34;18.03;52.17
64937;SHT30;51452;47.698;19.050;2023-05-10T10:25:01;17.82;50.68
64937;SHT30;51452;47.698;19.050;2023-05-10T10:27:45;17.82;51.66
64937;SHT30;51452;47.698;19.050;2023-05-10T10:33:06;18.20;52.71
64937;SHT30;51452;47.698;19.050;2023-05-10T10:35:36;18.34;51.36
64937;SHT30;51452;47.698;19.050;2023-05-10T10:38:01;18.30;50.16
64937;SHT30;51452;47.698;19.050;2023-05-10T10:40:29;18.37;51.69
64937;SHT30;51452;47.698;19.050;2023-05-10T10:42:56;18.46;50.11
64937;SHT30;51452;47.698;19.050;2023-05-10T10:45:22;18.53;50.31
64937;SHT30;51452;47.698;19.050;2023-05-10T10:47:48;18.54;47.70
64937;SHT30;51452;47.698;19.050;2023-05-10T10:50:15;18.48;48.34
64937;SHT30;51452;47.698;19.050;2023-05-10T10:52:43;18.43;48.30
64937;SHT30;51452;47.698;19.050;2023-05-10T10:55:20;18.25;47.54
64937;SHT30;51452;47.698;19.050;2023-05-10T10:57:55;18.43;48.19
64937;SHT30;51452;47.698;19.050;2023-05-10T11:00:30;18.41;48.69
64937;SHT30;51452;47.698;19.050;2023-05-10T11:03:04;18.57;50.10
64937;SHT30;51452;47.698;19.050;2023-05-10T11:08:27;18.79;49.38
64937;SHT30;51452;47.698;19.050;2023-05-10T11:11:01;18.60;48.32
64937;SHT30;51452;47.698;19.050;2023-05-10T11:13:34;18.37;49.22
64937;SHT30;51452;47.698;19.050;2023-05-10T11:18:36;18.03;48.46
64937;SHT30;51452;47.698;19.050;2023-05-10T11:21:02;18.17;47.83
64937;SHT30;51452;47.698;19.050;2023-05-10T11:23:48;18.37;50.83
64937;SHT30;51452;47.698;19.050;2023-05-10T11:26:14;18.77;51.17
64937;SHT30;51452;47.698;19.050;2023-05-10T11:31:09;18.34;47.61
64937;SHT30;51452;47.698;19.050;2023-05-10T11:33:54;18.12;48.02
64937;SHT30;51452;47.698;19.050;2023-05-10T11:36:21;18.02;48.63
64937;SHT30;51452;47.698;19.050;2023-05-10T11:38:48;18.16;48.65
64937;SHT30;51452;47.698;19.050;2023-05-10T11:41:15;18.20;51.14
64937;SHT30;51452;47.698;19.050;2023-05-10T11:43:42;18.34;47.44
64937;SHT30;51452;47.698;19.050;2023-05-10T11:46:10;18.36;47.23
64937;SHT30;51452;47.698;19.050;2023-05-10T11:48:36;18.43;47.30
64937;SHT30;51452;47.698;19.050;2023-05-10T11:51:03;18.56;46.65
64937;SHT30;51452;47.698;19.050;2023-05-10T11:53:32;18.54;47.68
64937;SHT30;51452;47.698;19.050;2023-05-10T11:58:30;18.81;48.14
64937;SHT30;51452;47.698;19.050;2023-05-10T12:00:57;18.79;48.41
64937;SHT30;51452;47.698;19.050;2023-05-10T12:03:22;18.79;47.14
64937;SHT30;51452;47.698;19.050;2023-05-10T12:05:48;18.68;46.27
64937;SHT30;51452;47.698;19.050;2023-05-10T12:08:21;18.71;47.14
64937;SHT30;51452;47.698;19.050;2023-05-10T12:10:46;18.78;47.73
64937;SHT30;51452;47.698;19.050;2023-05-10T12:13:12;18.56;48.82
64937;SHT30;51452;47.698;19.050;2023-05-10T12:15:39;18.43;47.56
64937;SHT30;51452;47.698;19.050;2023-05-10T12:18:05;18.38;47.44
64937;SHT30;51452;47.698;19.050;2023-05-10T12:20:30;18.44;47.89
64937;SHT30;51452;47.698;19.050;2023-05-10T12:22:57;18.56;47.05
64937;SHT30;51452;47.698;19.050;2023-05-10T12:25:29;18.58;46.90
64937;SHT30;51452;47.698;19.050;2023-05-10T12:27:56;18.74;46.86
64937;SHT30;51452;47.698;19.050;2023-05-10T12:30:22;18.94;46.43
64937;SHT30;51452;47.698;19.050;2023-05-10T12:32:48;19.09;45.97
64937;SHT30;51452;47.698;19.050;2023-05-10T12:35:13;19.14;45.00
64937;SHT30;51452;47.698;19.050;2023-05-10T12:37:39;19.19;45.38
64937;SHT30;51452;47.698;19.050;2023-05-10T12:40:08;19.08;46.59
64937;SHT30;51452;47.698;19.050;2023-05-10T12:42:35;18.89;46.96
64937;SHT30;51452;47.698;19.050;2023-05-10T12:45:01;18.60;48.26
64937;SHT30;51452;47.698;19.050;2023-05-10T12:47:27;18.65;46.81
64937;SHT30;51452;47.698;19.050;2023-05-10T12:49:53;18.72;47.39
64937;SHT30;51452;47.698;19.050;2023-05-10T12:52:18;18.81;46.87
64937;SHT30;51452;47.698;19.050;2023-05-10T12:54:44;18.94;46.98
64937;SHT30;51452;47.698;19.050;2023-05-10T12:57:09;18.69;45.62
64937;SHT30;51452;47.698;19.050;2023-05-10T12:59:35;18.43;47.46
64937;SHT30;51452;47.698;19.050;2023-05-10T13:02:00;18.25;46.89
64937;SHT30;51452;47.698;19.050;2023-05-10T13:04:26;18.22;47.32
64937;SHT30;51452;47.698;19.050;2023-05-10T13:06:51;18.17;46.45
64937;SHT30;51452;47.698;19.050;2023-05-10T13:09:16;18.23;47.37
64937;SHT30;51452;47.698;19.050;2023-05-10T13:11:42;18.27;47.83
64937;SHT30;51452;47.698;19.050;2023-05-10T13:14:07;18.18;46.85
64937;SHT30;51452;47.698;19.050;2023-05-10T13:16:32;18.41;46.01
64937;SHT30;51452;47.698;19.050;2023-05-10T13:18:58;18.41;46.70
64937;SHT30;51452;47.698;19.050;2023-05-10T13:21:24;18.58;45.80
64937;SHT30;51452;47.698;19.050;2023-05-10T13:23:50;18.77;45.88
64937;SHT30;51452;47.698;19.050;2023-05-10T13:26:15;18.98;46.55
64937;SHT30;51452;47.698;19.050;2023-05-10T13:28:41;18.96;46.67
64937;SHT30;51452;47.698;19.050;2023-05-10T13:31:06;19.05;46.20
64937;SHT30;51452;47.698;19.050;2023-05-10T13:33:32;19.22;47.50
64937;SHT30;51452;47.698;19.050;2023-05-10T13:35:57;19.47;46.04
64937;SHT30;51452;47.698;19.050;2023-05-10T13:38:23;19.55;46.45
64937;SHT30;51452;47.698;19.050;2023-05-10T13:40:48;19.76;44.28
64937;SHT30;51452;47.698;19.050;2023-05-10T13:43:17;19.93;46.08
64937;SHT30;51452;47.698;19.050;2023-05-10T13:45:43;19.91;43.29
64937;SHT30;51452;47.698;19.050;2023-05-10T13:48:08;20.04;43.64
64937;SHT30;51452;47.698;19.050;2023-05-10T13:50:33;20.15;43.49
64937;SHT30;51452;47.698;19.050;2023-05-10T13:52:59;20.15;43.76
64937;SHT30;51452;47.698;19.050;2023-05-10T13:55:24;20.14;43.67
64937;SHT30;51452;47.698;19.050;2023-05-10T13:57:49;20.08;43.50
64937;SHT30;51452;47.698;19.050;2023-05-10T14:00:15;19.93;42.73
64937;SHT30;51452;47.698;19.050;2023-05-10T14:02:41;19.88;43.16
64937;SHT30;51452;47.698;19.050;2023-05-10T14:05:07;19.87;43.20
64937;SHT30;51452;47.698;19.050;2023-05-10T14:07:32;19.63;41.69
64937;SHT30;51452;47.698;19.050;2023-05-10T14:09:58;19.65;43.75
64937;SHT30;51452;47.698;19.050;2023-05-10T14:12:23;19.63;43.06
64937;SHT30;51452;47.698;19.050;2023-05-10T14:14:49;19.57;42.74
64937;SHT30;51452;47.698;19.050;2023-05-10T14:17:14;19.50;43.36
64937;SHT30;51452;47.698;19.050;2023-05-10T14:19:39;19.43;41.70
64937;SHT30;51452;47.698;19.050;2023-05-10T14:22:05;19.45;41.59
64937;SHT30;51452;47.698;19.050;2023-05-10T14:24:30;19.53;41.87
64937;SHT30;51452;47.698;19.050;2023-05-10T14:26:56;19.56;43.20
64937;SHT30;51452;47.698;19.050;2023-05-10T14:29:22;19.59;43.07
64937;SHT30;51452;47.698;19.050;2023-05-10T14:31:47;19.56;43.28
64937;SHT30;51452;47.698;19.050;2023-05-10T14:34:13;19.67;42.06
64937;SHT30;51452;47.698;19.050;2023-05-10T14:36:38;19.63;43.94
64937;SHT30;51452;47.698;19.050;2023-05-10T14:39:04;19.49;41.85
64937;SHT30;51452;47.698;19.050;2023-05-10T14:41:30;19.49;42.91
64937;SHT30;51452;47.698;19.050;2023-05-10T14:43:56;19.53;42.81
64937;SHT30;51452;47.698;19.050;2023-05-10T14:46:21;19.53;42.47
64937;SHT30;51452;47.698;19.050;2023-05-10T14:48:46;19.53;42.50
64937;SHT30;51452;47.698;19.050;2023-05-10T14:51:12;19.49;42.47
64937;SHT30;51452;47.698;19.050;2023-05-10T14:53:37;19.47;41.84
64937;SHT30;51452;47.698;19.050;2023-05-10T14:56:02;19.56;42.16
64937;SHT30;51452;47.698;19.050;2023-05-10T14:58:28;19.40;41.87
64937;SHT30;51452;47.698;19.050;2023-05-10T15:00:53;19.39;42.01
64937;SHT30;51452;47.698;19.050;2023-05-10T15:03:19;19.39;41.38
64937;SHT30;51452;47.698;19.050;2023-05-10T15:05:44;19.25;41.67
64937;SHT30;51452;47.698;19.050;2023-05-10T15:08:10;19.19;42.00
64937;SHT30;51452;47.698;19.050;2023-05-10T15:10:37;19.25;41.47
64937;SHT30;51452;47.698;19.050;2023-05-10T15:13:03;19.20;41.12
64937;SHT30;51452;47.698;19.050;2023-05-10T15:15:29;19.23;41.75
64937;SHT30;51452;47.698;19.050;2023-05-10T15:17:54;19.23;41.60
64937;SHT30;51452;47.698;19.050;2023-05-10T15:20:20;19.20;40.07
64937;SHT30;51452;47.698;19.050;2023-05-10T15:22:45;19.19;41.20
64937;SHT30;51452;47.698;19.050;2023-05-10T15:25:10;19.26;41.33
64937;SHT30;51452;47.698;19.050;2023-05-10T15:27:36;19.18;41.59
64937;SHT30;51452;47.698;19.050;2023-05-10T15:30:01;19.01;41.21
64937;SHT30;51452;47.698;19.050;2023-05-10T15:32:27;18.92;42.84
64937;SHT30;51452;47.698;19.050;2023-05-10T15:34:54;19.04;42.73
64937;SHT30;51452;47.698;19.050;2023-05-10T15:37:20;19.06;43.47
64937;SHT30;51452;47.698;19.050;2023-05-10T15:39:45;19.18;43.37
64937;SHT30;51452;47.698;19.050;2023-05-10T15:42:10;19.23;43.38
64937;SHT30;51452;47.698;19.050;2023-05-10T15:44:36;19.16;43.05